sensor_id;sensor_type;location;lat;lon;timestamp;P1;durP1;ratioP1;P2;durP2;ratioP2
56511;SDS011;42408;53.238;5.686;2022-12-18T00:02:13;77.50;;;37.43;;
56511;SDS011;42408;53.238;5.686;2022-12-18T00:04:38;79.67;;;38.70;;
56511;SDS011;42408;53.238;5.686;2022-12-18T00:07:04;74.00;;;36.47;;
56511;SDS011;42408;53.238;5.686;2022-12-18T00:09:30;74.90;;;35.93;;
56511;SDS011;42408;53.238;5.686;2022-12-18T00:11:55;75.30;;;35.83;;
56511;SDS011;42408;53.238;5.686;2022-12-18T00:14:21;70.40;;;34.17;;
56511;SDS011;42408;53.238;5.686;2022-12-18T00:16:46;77.53;;;37.97;;
56511;SDS011;42408;53.238;5.686;2022-12-18T00:19:13;84.77;;;41.30;;
56511;SDS011;42408;53.238;5.686;2022-12-18T00:21:40;76.50;;;38.42;;
56511;SDS011;42408;53.238;5.686;2022-12-18T00:24:07;79.95;;;41.20;;
56511;SDS011;42408;53.238;5.686;2022-12-18T00:26:34;81.88;;;39.55;;
56511;SDS011;42408;53.238;5.686;2022-12-18T00:29:01;82.40;;;40.83;;
56511;SDS011;42408;53.238;5.686;2022-12-18T00:31:32;76.60;;;40.92;;
56511;SDS011;42408;53.238;5.686;2022-12-18T00:33:58;90.25;;;42.75;;
56511;SDS011;42408;53.238;5.686;2022-12-18T00:36:25;88.97;;;43.53;;
56511;SDS011;42408;53.238;5.686;2022-12-18T00:38:53;83.00;;;41.78;;
56511;SDS011;42408;53.238;5.686;2022-12-18T00:41:19;80.45;;;41.28;;
56511;SDS011;42408;53.238;5.686;2022-12-18T00:44:05;82.28;;;40.15;;
56511;SDS011;42408;53.238;5.686;2022-12-18T00:46:32;80.47;;;41.95;;
56511;SDS011;42408;53.238;5.686;2022-12-18T00:48:58;81.93;;;41.63;;
56511;SDS011;42408;53.238;5.686;2022-12-18T00:51:24;74.50;;;41.07;;
56511;SDS011;42408;53.238;5.686;2022-12-18T00:53:50;85.90;;;41.87;;
56511;SDS011;42408;53.238;5.686;2022-12-18T00:56:15;93.23;;;39.47;;
56511;SDS011;42408;53.238;5.686;2022-12-18T00:58:41;73.70;;;37.33;;
56511;SDS011;42408;53.238;5.686;2022-12-18T01:01:07;84.07;;;41.10;;
56511;SDS011;42408;53.238;5.686;2022-12-18T01:03:33;79.97;;;39.35;;
56511;SDS011;42408;53.238;5.686;2022-12-18T01:05:59;72.17;;;37.07;;
56511;SDS011;42408;53.238;5.686;2022-12-18T01:08:24;80.87;;;39.70;;
56511;SDS011;42408;53.238;5.686;2022-12-18T01:10:50;78.03;;;39.13;;
56511;SDS011;42408;53.238;5.686;2022-12-18T01:13:16;70.27;;;32.50;;
56511;SDS011;42408;53.238;5.686;2022-12-18T01:15:47;65.87;;;31.23;;
56511;SDS011;42408;53.238;5.686;2022-12-18T01:18:16;67.57;;;36.38;;
56511;SDS011;42408;53.238;5.686;2022-12-18T01:20:41;69.40;;;35.43;;
56511;SDS011;42408;53.238;5.686;2022-12-18T01:23:07;72.63;;;37.83;;
56511;SDS011;42408;53.238;5.686;2022-12-18T01:25:35;69.17;;;36.07;;
56511;SDS011;42408;53.238;5.686;2022-12-18T01:28:01;74.45;;;36.78;;
56511;SDS011;42408;53.238;5.686;2022-12-18T01:30:26;71.13;;;35.43;;
56511;SDS011;42408;53.238;5.686;2022-12-18T01:32:52;57.30;;;32.43;;
56511;SDS011;42408;53.238;5.686;2022-12-18T01:35:18;71.27;;;36.30;;
56511;SDS011;42408;53.238;5.686;2022-12-18T01:37:44;72.53;;;36.03;;
56511;SDS011;42408;53.238;5.686;2022-12-18T01:40:10;78.93;;;39.30;;
56511;SDS011;42408;53.238;5.686;2022-12-18T01:42:35;81.47;;;38.00;;
56511;SDS011;42408;53.238;5.686;2022-12-18T01:50:08;70.47;;;35.90;;
56511;SDS011;42408;53.238;5.686;2022-12-18T01:52:37;73.53;;;34.33;;
56511;SDS011;42408;53.238;5.686;2022-12-18T01:55:05;65.00;;;36.83;;
56511;SDS011;42408;53.238;5.686;2022-12-18T01:57:32;80.80;;;36.67;;
56511;SDS011;42408;53.238;5.686;2022-12-18T02:00:03;76.53;;;38.03;;
56511;SDS011;42408;53.238;5.686;2022-12-18T02:02:34;76.00;;;38.05;;
56511;SDS011;42408;53.238;5.686;2022-12-18T02:04:59;73.70;;;35.67;;
56511;SDS011;42408;53.238;5.686;2022-12-18T02:09:59;65.88;;;32.58;;
56511;SDS011;42408;53.238;5.686;2022-12-18T02:12:57;69.47;;;35.47;;
56511;SDS011;42408;53.238;5.686;2022-12-18T02:18:23;64.43;;;34.22;;
56511;SDS011;42408;53.238;5.686;2022-12-18T02:29:08;61.85;;;32.35;;
56511;SDS011;42408;53.238;5.686;2022-12-18T02:31:56;67.18;;;32.88;;
56511;SDS011;42408;53.238;5.686;2022-12-18T02:34:25;64.32;;;34.55;;
56511;SDS011;42408;53.238;5.686;2022-12-18T02:36:54;65.88;;;35.75;;
56511;SDS011;42408;53.238;5.686;2022-12-18T02:39:21;60.80;;;33.45;;
56511;SDS011;42408;53.238;5.686;2022-12-18T02:41:50;64.88;;;32.30;;
56511;SDS011;42408;53.238;5.686;2022-12-18T02:44:16;69.55;;;34.58;;
56511;SDS011;42408;53.238;5.686;2022-12-18T02:46:52;67.20;;;34.63;;
56511;SDS011;42408;53.238;5.686;2022-12-18T02:49:25;63.70;;;32.92;;
56511;SDS011;42408;53.238;5.686;2022-12-18T02:57:56;61.28;;;32.90;;
56511;SDS011;42408;53.238;5.686;2022-12-18T03:03:33;68.72;;;33.65;;
56511;SDS011;42408;53.238;5.686;2022-12-18T03:08:41;70.85;;;33.33;;
56511;SDS011;42408;53.238;5.686;2022-12-18T03:11:12;61.45;;;29.30;;
56511;SDS011;42408;53.238;5.686;2022-12-18T03:16:10;63.05;;;31.58;;
56511;SDS011;42408;53.238;5.686;2022-12-18T03:18:43;61.92;;;31.17;;
56511;SDS011;42408;53.238;5.686;2022-12-18T03:21:14;61.25;;;32.08;;
56511;SDS011;42408;53.238;5.686;2022-12-18T03:23:44;62.65;;;31.58;;
56511;SDS011;42408;53.238;5.686;2022-12-18T03:26:15;67.68;;;32.28;;
56511;SDS011;42408;53.238;5.686;2022-12-18T03:28:46;65.88;;;31.92;;
56511;SDS011;42408;53.238;5.686;2022-12-18T03:31:15;59.13;;;32.20;;
56511;SDS011;42408;53.238;5.686;2022-12-18T03:33:55;68.20;;;32.22;;
56511;SDS011;42408;53.238;5.686;2022-12-18T03:36:24;68.15;;;33.25;;
56511;SDS011;42408;53.238;5.686;2022-12-18T03:38:50;72.97;;;33.60;;
56511;SDS011;42408;53.238;5.686;2022-12-18T03:41:22;68.90;;;31.87;;
56511;SDS011;42408;53.238;5.686;2022-12-18T03:44:10;60.20;;;32.67;;
56511;SDS011;42408;53.238;5.686;2022-12-18T03:49:25;64.97;;;32.03;;
56511;SDS011;42408;53.238;5.686;2022-12-18T03:52:06;68.03;;;32.78;;
56511;SDS011;42408;53.238;5.686;2022-12-18T03:54:36;69.78;;;34.08;;
56511;SDS011;42408;53.238;5.686;2022-12-18T03:57:07;66.95;;;33.03;;
56511;SDS011;42408;53.238;5.686;2022-12-18T03:59:38;61.30;;;31.15;;
56511;SDS011;42408;53.238;5.686;2022-12-18T04:04:32;59.30;;;30.43;;
56511;SDS011;42408;53.238;5.686;2022-12-18T04:07:00;61.85;;;31.00;;
56511;SDS011;42408;53.238;5.686;2022-12-18T04:09:26;60.72;;;30.52;;
56511;SDS011;42408;53.238;5.686;2022-12-18T04:11:53;63.13;;;32.13;;
56511;SDS011;42408;53.238;5.686;2022-12-18T04:14:19;65.63;;;31.43;;
56511;SDS011;42408;53.238;5.686;2022-12-18T04:16:45;62.70;;;28.02;;
56511;SDS011;42408;53.238;5.686;2022-12-18T04:19:10;59.70;;;29.97;;
56511;SDS011;42408;53.238;5.686;2022-12-18T04:21:36;61.87;;;29.90;;
56511;SDS011;42408;53.238;5.686;2022-12-18T04:24:02;61.50;;;31.80;;
56511;SDS011;42408;53.238;5.686;2022-12-18T04:26:28;59.20;;;30.83;;
56511;SDS011;42408;53.238;5.686;2022-12-18T04:28:53;70.60;;;32.53;;
56511;SDS011;42408;53.238;5.686;2022-12-18T04:31:19;72.00;;;30.87;;
56511;SDS011;42408;53.238;5.686;2022-12-18T04:33:44;62.43;;;30.77;;
56511;SDS011;42408;53.238;5.686;2022-12-18T04:36:10;72.97;;;33.33;;
56511;SDS011;42408;53.238;5.686;2022-12-18T04:41:03;61.33;;;30.52;;
56511;SDS011;42408;53.238;5.686;2022-12-18T04:43:28;63.27;;;32.63;;
56511;SDS011;42408;53.238;5.686;2022-12-18T04:46:00;64.97;;;33.20;;
56511;SDS011;42408;53.238;5.686;2022-12-18T04:48:30;58.30;;;30.58;;
56511;SDS011;42408;53.238;5.686;2022-12-18T04:50:55;64.53;;;32.20;;
56511;SDS011;42408;53.238;5.686;2022-12-18T04:53:21;68.93;;;31.53;;
56511;SDS011;42408;53.238;5.686;2022-12-18T04:55:47;62.83;;;31.03;;
56511;SDS011;42408;53.238;5.686;2022-12-18T04:58:12;62.60;;;31.03;;
56511;SDS011;42408;53.238;5.686;2022-12-18T05:00:38;67.53;;;33.27;;
56511;SDS011;42408;53.238;5.686;2022-12-18T05:03:04;66.05;;;32.08;;
56511;SDS011;42408;53.238;5.686;2022-12-18T05:05:29;69.50;;;33.37;;
56511;SDS011;42408;53.238;5.686;2022-12-18T05:07:55;67.07;;;32.43;;
56511;SDS011;42408;53.238;5.686;2022-12-18T05:10:21;65.20;;;32.50;;
56511;SDS011;42408;53.238;5.686;2022-12-18T05:12:46;66.53;;;32.63;;
56511;SDS011;42408;53.238;5.686;2022-12-18T05:15:31;66.40;;;32.33;;
56511;SDS011;42408;53.238;5.686;2022-12-18T05:17:58;67.28;;;33.35;;
56511;SDS011;42408;53.238;5.686;2022-12-18T05:20:24;67.50;;;31.90;;
56511;SDS011;42408;53.238;5.686;2022-12-18T05:22:50;69.93;;;32.58;;
56511;SDS011;42408;53.238;5.686;2022-12-18T05:25:16;65.85;;;32.97;;
56511;SDS011;42408;53.238;5.686;2022-12-18T05:27:42;66.80;;;31.50;;
56511;SDS011;42408;53.238;5.686;2022-12-18T05:30:08;64.90;;;32.90;;
56511;SDS011;42408;53.238;5.686;2022-12-18T05:32:35;63.30;;;32.42;;
56511;SDS011;42408;53.238;5.686;2022-12-18T05:35:00;62.30;;;33.70;;
56511;SDS011;42408;53.238;5.686;2022-12-18T05:37:26;64.30;;;33.77;;
56511;SDS011;42408;53.238;5.686;2022-12-18T05:39:52;60.60;;;30.83;;
56511;SDS011;42408;53.238;5.686;2022-12-18T05:42:17;65.70;;;33.20;;
56511;SDS011;42408;53.238;5.686;2022-12-18T05:44:43;63.43;;;29.97;;
56511;SDS011;42408;53.238;5.686;2022-12-18T05:47:09;57.70;;;32.58;;
56511;SDS011;42408;53.238;5.686;2022-12-18T05:49:35;66.67;;;31.63;;
56511;SDS011;42408;53.238;5.686;2022-12-18T05:52:00;56.93;;;32.03;;
56511;SDS011;42408;53.238;5.686;2022-12-18T05:54:29;54.10;;;31.67;;
56511;SDS011;42408;53.238;5.686;2022-12-18T05:56:56;64.82;;;30.40;;
56511;SDS011;42408;53.238;5.686;2022-12-18T05:59:22;56.15;;;30.50;;
56511;SDS011;42408;53.238;5.686;2022-12-18T06:01:48;62.60;;;32.93;;
56511;SDS011;42408;53.238;5.686;2022-12-18T06:04:13;60.00;;;32.07;;
56511;SDS011;42408;53.238;5.686;2022-12-18T06:06:39;61.03;;;30.13;;
56511;SDS011;42408;53.238;5.686;2022-12-18T06:09:05;63.47;;;33.03;;
56511;SDS011;42408;53.238;5.686;2022-12-18T06:11:33;62.25;;;30.50;;
56511;SDS011;42408;53.238;5.686;2022-12-18T06:14:00;58.95;;;30.05;;
56511;SDS011;42408;53.238;5.686;2022-12-18T06:16:27;63.35;;;29.38;;
56511;SDS011;42408;53.238;5.686;2022-12-18T06:18:56;53.97;;;27.45;;
56511;SDS011;42408;53.238;5.686;2022-12-18T06:21:22;56.03;;;30.00;;
56511;SDS011;42408;53.238;5.686;2022-12-18T06:23:48;61.73;;;30.73;;
56511;SDS011;42408;53.238;5.686;2022-12-18T06:26:13;56.47;;;30.80;;
56511;SDS011;42408;53.238;5.686;2022-12-18T06:28:39;54.60;;;29.00;;
56511;SDS011;42408;53.238;5.686;2022-12-18T06:31:05;46.10;;;28.63;;
56511;SDS011;42408;53.238;5.686;2022-12-18T06:33:31;63.22;;;31.52;;
56511;SDS011;42408;53.238;5.686;2022-12-18T06:36:00;56.50;;;28.88;;
56511;SDS011;42408;53.238;5.686;2022-12-18T06:38:28;54.78;;;29.42;;
56511;SDS011;42408;53.238;5.686;2022-12-18T06:40:53;51.33;;;28.03;;
56511;SDS011;42408;53.238;5.686;2022-12-18T06:43:19;54.90;;;30.47;;
56511;SDS011;42408;53.238;5.686;2022-12-18T06:45:45;54.97;;;29.80;;
56511;SDS011;42408;53.238;5.686;2022-12-18T06:48:14;54.15;;;29.73;;
56511;SDS011;42408;53.238;5.686;2022-12-18T06:50:42;53.97;;;29.63;;
56511;SDS011;42408;53.238;5.686;2022-12-18T06:53:07;50.70;;;28.85;;
56511;SDS011;42408;53.238;5.686;2022-12-18T06:55:33;52.20;;;28.53;;
56511;SDS011;42408;53.238;5.686;2022-12-18T06:57:58;54.03;;;27.73;;
56511;SDS011;42408;53.238;5.686;2022-12-18T07:00:24;54.10;;;28.70;;
56511;SDS011;42408;53.238;5.686;2022-12-18T07:02:50;53.80;;;26.50;;
56511;SDS011;42408;53.238;5.686;2022-12-18T07:05:15;48.27;;;28.53;;
56511;SDS011;42408;53.238;5.686;2022-12-18T07:07:41;51.60;;;27.73;;
56511;SDS011;42408;53.238;5.686;2022-12-18T07:10:07;48.20;;;27.00;;
56511;SDS011;42408;53.238;5.686;2022-12-18T07:12:33;53.33;;;26.15;;
56511;SDS011;42408;53.238;5.686;2022-12-18T07:14:58;46.63;;;26.63;;
56511;SDS011;42408;53.238;5.686;2022-12-18T07:17:24;45.67;;;24.40;;
56511;SDS011;42408;53.238;5.686;2022-12-18T07:19:49;48.97;;;24.53;;
56511;SDS011;42408;53.238;5.686;2022-12-18T07:22:15;48.30;;;26.73;;
56511;SDS011;42408;53.238;5.686;2022-12-18T07:24:41;47.03;;;25.13;;
56511;SDS011;42408;53.238;5.686;2022-12-18T07:27:06;47.17;;;25.03;;
56511;SDS011;42408;53.238;5.686;2022-12-18T07:29:32;44.60;;;26.40;;
56511;SDS011;42408;53.238;5.686;2022-12-18T07:31:58;39.47;;;24.37;;
56511;SDS011;42408;53.238;5.686;2022-12-18T07:34:23;47.83;;;25.70;;
56511;SDS011;42408;53.238;5.686;2022-12-18T07:36:49;38.53;;;22.97;;
56511;SDS011;42408;53.238;5.686;2022-12-18T07:39:15;40.47;;;23.73;;
56511;SDS011;42408;53.238;5.686;2022-12-18T07:41:40;44.70;;;23.77;;
56511;SDS011;42408;53.238;5.686;2022-12-18T07:44:11;44.70;;;24.00;;
56511;SDS011;42408;53.238;5.686;2022-12-18T07:46:37;36.70;;;22.98;;
56511;SDS011;42408;53.238;5.686;2022-12-18T07:49:03;55.47;;;32.78;;
56511;SDS011;42408;53.238;5.686;2022-12-18T07:51:29;47.85;;;32.25;;
56511;SDS011;42408;53.238;5.686;2022-12-18T07:53:55;41.53;;;25.83;;
56511;SDS011;42408;53.238;5.686;2022-12-18T07:56:21;40.17;;;22.70;;
56511;SDS011;42408;53.238;5.686;2022-12-18T07:58:47;47.03;;;27.90;;
56511;SDS011;42408;53.238;5.686;2022-12-18T08:01:13;44.43;;;24.03;;
56511;SDS011;42408;53.238;5.686;2022-12-18T08:03:39;51.20;;;28.77;;
56511;SDS011;42408;53.238;5.686;2022-12-18T08:08:33;38.88;;;22.85;;
56511;SDS011;42408;53.238;5.686;2022-12-18T08:10:59;45.35;;;27.10;;
56511;SDS011;42408;53.238;5.686;2022-12-18T08:13:24;50.37;;;33.03;;
56511;SDS011;42408;53.238;5.686;2022-12-18T08:16:01;39.25;;;25.65;;
56511;SDS011;42408;53.238;5.686;2022-12-18T08:18:28;41.33;;;24.38;;
56511;SDS011;42408;53.238;5.686;2022-12-18T08:20:54;43.35;;;27.40;;
56511;SDS011;42408;53.238;5.686;2022-12-18T08:23:20;73.03;;;52.15;;
56511;SDS011;42408;53.238;5.686;2022-12-18T08:25:47;39.08;;;25.52;;
56511;SDS011;42408;53.238;5.686;2022-12-18T08:28:12;43.20;;;27.73;;
56511;SDS011;42408;53.238;5.686;2022-12-18T08:30:41;42.35;;;26.90;;
56511;SDS011;42408;53.238;5.686;2022-12-18T08:33:07;41.97;;;27.35;;
56511;SDS011;42408;53.238;5.686;2022-12-18T08:35:36;39.70;;;23.67;;
56511;SDS011;42408;53.238;5.686;2022-12-18T08:38:02;39.38;;;23.20;;
56511;SDS011;42408;53.238;5.686;2022-12-18T08:40:28;78.35;;;63.78;;
56511;SDS011;42408;53.238;5.686;2022-12-18T08:42:54;37.03;;;26.20;;
56511;SDS011;42408;53.238;5.686;2022-12-18T08:45:38;43.35;;;29.95;;
56511;SDS011;42408;53.238;5.686;2022-12-18T08:48:03;52.57;;;37.93;;
56511;SDS011;42408;53.238;5.686;2022-12-18T08:50:29;39.57;;;22.13;;
56511;SDS011;42408;53.238;5.686;2022-12-18T08:52:55;60.90;;;41.57;;
56511;SDS011;42408;53.238;5.686;2022-12-18T08:55:20;59.03;;;41.33;;
56511;SDS011;42408;53.238;5.686;2022-12-18T08:57:49;36.13;;;23.17;;
56511;SDS011;42408;53.238;5.686;2022-12-18T09:00:15;45.08;;;34.33;;
56511;SDS011;42408;53.238;5.686;2022-12-18T09:02:41;34.58;;;23.63;;
56511;SDS011;42408;53.238;5.686;2022-12-18T09:05:07;36.13;;;21.67;;
56511;SDS011;42408;53.238;5.686;2022-12-18T09:07:32;35.77;;;21.97;;
56511;SDS011;42408;53.238;5.686;2022-12-18T09:09:58;33.40;;;20.77;;
56511;SDS011;42408;53.238;5.686;2022-12-18T09:12:23;40.50;;;22.97;;
56511;SDS011;42408;53.238;5.686;2022-12-18T09:14:49;40.17;;;26.40;;
56511;SDS011;42408;53.238;5.686;2022-12-18T09:17:15;31.90;;;21.30;;
56511;SDS011;42408;53.238;5.686;2022-12-18T09:19:41;33.60;;;25.50;;
56511;SDS011;42408;53.238;5.686;2022-12-18T09:22:06;36.07;;;24.77;;
56511;SDS011;42408;53.238;5.686;2022-12-18T09:24:32;35.83;;;22.73;;
56511;SDS011;42408;53.238;5.686;2022-12-18T09:26:58;39.47;;;20.07;;
56511;SDS011;42408;53.238;5.686;2022-12-18T09:29:23;31.20;;;20.80;;
56511;SDS011;42408;53.238;5.686;2022-12-18T09:31:49;33.50;;;20.10;;
56511;SDS011;42408;53.238;5.686;2022-12-18T09:34:15;34.27;;;23.60;;
56511;SDS011;42408;53.238;5.686;2022-12-18T09:36:41;31.17;;;20.35;;
56511;SDS011;42408;53.238;5.686;2022-12-18T09:39:07;30.20;;;21.27;;
56511;SDS011;42408;53.238;5.686;2022-12-18T09:41:39;30.37;;;20.00;;
56511;SDS011;42408;53.238;5.686;2022-12-18T09:44:25;30.98;;;19.20;;
56511;SDS011;42408;53.238;5.686;2022-12-18T09:47:06;30.90;;;19.20;;
56511;SDS011;42408;53.238;5.686;2022-12-18T09:49:35;29.92;;;18.85;;
56511;SDS011;42408;53.238;5.686;2022-12-18T09:52:09;30.40;;;20.70;;
56511;SDS011;42408;53.238;5.686;2022-12-18T09:54:44;29.48;;;19.23;;
56511;SDS011;42408;53.238;5.686;2022-12-18T09:57:18;31.15;;;19.40;;
56511;SDS011;42408;53.238;5.686;2022-12-18T09:59:49;41.67;;;32.50;;
56511;SDS011;42408;53.238;5.686;2022-12-18T10:02:22;30.20;;;20.38;;
56511;SDS011;42408;53.238;5.686;2022-12-18T10:10:26;31.33;;;19.08;;
56511;SDS011;42408;53.238;5.686;2022-12-18T10:13:01;29.27;;;19.23;;
56511;SDS011;42408;53.238;5.686;2022-12-18T10:20:42;28.70;;;15.30;;
56511;SDS011;42408;53.238;5.686;2022-12-18T10:26:05;28.67;;;17.55;;
56511;SDS011;42408;53.238;5.686;2022-12-18T10:28:33;27.35;;;18.30;;
56511;SDS011;42408;53.238;5.686;2022-12-18T10:31:01;47.95;;;41.05;;
56511;SDS011;42408;53.238;5.686;2022-12-18T10:33:28;26.97;;;21.30;;
56511;SDS011;42408;53.238;5.686;2022-12-18T10:35:56;26.08;;;16.55;;
56511;SDS011;42408;53.238;5.686;2022-12-18T10:38:29;36.50;;;26.38;;
56511;SDS011;42408;53.238;5.686;2022-12-18T10:46:14;20.42;;;14.98;;
56511;SDS011;42408;53.238;5.686;2022-12-18T10:51:23;25.60;;;15.52;;
56511;SDS011;42408;53.238;5.686;2022-12-18T10:56:23;22.60;;;16.90;;
56511;SDS011;42408;53.238;5.686;2022-12-18T10:59:01;25.90;;;17.05;;
56511;SDS011;42408;53.238;5.686;2022-12-18T11:01:48;20.75;;;13.55;;
56511;SDS011;42408;53.238;5.686;2022-12-18T11:06:59;22.80;;;15.20;;
56511;SDS011;42408;53.238;5.686;2022-12-18T11:09:33;22.90;;;14.45;;
56511;SDS011;42408;53.238;5.686;2022-12-18T11:14:42;24.35;;;18.48;;
56511;SDS011;42408;53.238;5.686;2022-12-18T11:17:22;21.75;;;16.30;;
56511;SDS011;42408;53.238;5.686;2022-12-18T11:19:54;23.95;;;15.23;;
56511;SDS011;42408;53.238;5.686;2022-12-18T11:22:25;19.02;;;12.60;;
56511;SDS011;42408;53.238;5.686;2022-12-18T11:25:38;21.95;;;16.02;;
56511;SDS011;42408;53.238;5.686;2022-12-18T11:27:39;16.10;;;12.20;;
56511;SDS011;42408;53.238;5.686;2022-12-18T11:32:54;20.23;;;13.63;;
56511;SDS011;42408;53.238;5.686;2022-12-18T11:35:53;16.33;;;11.50;;
56511;SDS011;42408;53.238;5.686;2022-12-18T11:38:23;17.67;;;10.95;;
56511;SDS011;42408;53.238;5.686;2022-12-18T11:41:27;25.98;;;15.95;;
56511;SDS011;42408;53.238;5.686;2022-12-18T11:44:19;15.20;;;11.32;;
56511;SDS011;42408;53.238;5.686;2022-12-18T11:46:55;13.43;;;9.82;;
56511;SDS011;42408;53.238;5.686;2022-12-18T11:49:40;27.05;;;16.70;;
56511;SDS011;42408;53.238;5.686;2022-12-18T11:54:55;17.08;;;11.70;;
56511;SDS011;42408;53.238;5.686;2022-12-18T11:57:31;17.58;;;10.80;;
56511;SDS011;42408;53.238;5.686;2022-12-18T12:08:51;14.70;;;10.45;;
56511;SDS011;42408;53.238;5.686;2022-12-18T12:11:40;27.20;;;18.08;;
56511;SDS011;42408;53.238;5.686;2022-12-18T12:14:31;17.48;;;10.48;;
56511;SDS011;42408;53.238;5.686;2022-12-18T12:30:14;21.17;;;13.18;;
56511;SDS011;42408;53.238;5.686;2022-12-18T12:38:03;13.68;;;10.13;;
56511;SDS011;42408;53.238;5.686;2022-12-18T12:40:34;18.35;;;11.63;;
56511;SDS011;42408;53.238;5.686;2022-12-18T12:45:51;17.95;;;12.63;;
56511;SDS011;42408;53.238;5.686;2022-12-18T12:53:33;15.52;;;11.80;;
56511;SDS011;42408;53.238;5.686;2022-12-18T12:56:01;14.52;;;10.85;;
56511;SDS011;42408;53.238;5.686;2022-12-18T12:58:31;14.23;;;10.25;;
56511;SDS011;42408;53.238;5.686;2022-12-18T13:04:02;15.80;;;10.52;;
56511;SDS011;42408;53.238;5.686;2022-12-18T13:09:19;21.40;;;13.70;;
56511;SDS011;42408;53.238;5.686;2022-12-18T13:11:45;21.90;;;15.63;;
56511;SDS011;42408;53.238;5.686;2022-12-18T13:19:44;20.00;;;12.43;;
56511;SDS011;42408;53.238;5.686;2022-12-18T13:22:23;41.25;;;32.00;;
56511;SDS011;42408;53.238;5.686;2022-12-18T13:24:53;82.47;;;75.55;;
56511;SDS011;42408;53.238;5.686;2022-12-18T13:41:00;18.27;;;12.40;;
56511;SDS011;42408;53.238;5.686;2022-12-18T13:43:28;22.08;;;14.38;;
56511;SDS011;42408;53.238;5.686;2022-12-18T13:48:43;28.08;;;17.90;;
56511;SDS011;42408;53.238;5.686;2022-12-18T13:51:34;22.52;;;15.07;;
56511;SDS011;42408;53.238;5.686;2022-12-18T13:56:46;15.70;;;11.20;;
56511;SDS011;42408;53.238;5.686;2022-12-18T13:59:20;14.13;;;10.45;;
56511;SDS011;42408;53.238;5.686;2022-12-18T14:04:20;17.52;;;11.10;;
56511;SDS011;42408;53.238;5.686;2022-12-18T14:06:51;20.10;;;12.80;;
56511;SDS011;42408;53.238;5.686;2022-12-18T14:09:23;19.77;;;12.38;;
56511;SDS011;42408;53.238;5.686;2022-12-18T14:11:51;15.63;;;10.27;;
56511;SDS011;42408;53.238;5.686;2022-12-18T14:14:40;17.20;;;10.80;;
56511;SDS011;42408;53.238;5.686;2022-12-18T14:17:09;17.27;;;11.32;;
56511;SDS011;42408;53.238;5.686;2022-12-18T14:19:36;15.68;;;10.30;;
56511;SDS011;42408;53.238;5.686;2022-12-18T14:22:02;13.43;;;8.67;;
56511;SDS011;42408;53.238;5.686;2022-12-18T14:24:28;16.25;;;9.80;;
56511;SDS011;42408;53.238;5.686;2022-12-18T14:29:37;13.07;;;9.10;;
56511;SDS011;42408;53.238;5.686;2022-12-18T14:34:39;15.45;;;8.48;;
56511;SDS011;42408;53.238;5.686;2022-12-18T14:37:04;12.03;;;8.27;;
56511;SDS011;42408;53.238;5.686;2022-12-18T14:39:31;12.63;;;7.53;;
56511;SDS011;42408;53.238;5.686;2022-12-18T14:41:57;12.93;;;8.20;;
56511;SDS011;42408;53.238;5.686;2022-12-18T14:44:23;11.90;;;7.57;;
56511;SDS011;42408;53.238;5.686;2022-12-18T14:46:49;12.37;;;8.67;;
56511;SDS011;42408;53.238;5.686;2022-12-18T14:51:58;13.18;;;10.05;;
56511;SDS011;42408;53.238;5.686;2022-12-18T14:54:32;11.57;;;8.43;;
56511;SDS011;42408;53.238;5.686;2022-12-18T14:57:03;12.13;;;8.85;;
56511;SDS011;42408;53.238;5.686;2022-12-18T14:59:29;50.17;;;30.80;;
56511;SDS011;42408;53.238;5.686;2022-12-18T15:04:47;11.65;;;7.55;;
56511;SDS011;42408;53.238;5.686;2022-12-18T15:07:17;10.95;;;8.23;;
56511;SDS011;42408;53.238;5.686;2022-12-18T15:10:32;13.00;;;9.02;;
56511;SDS011;42408;53.238;5.686;2022-12-18T15:17:25;12.80;;;8.82;;
56511;SDS011;42408;53.238;5.686;2022-12-18T15:19:52;12.18;;;8.90;;
56511;SDS011;42408;53.238;5.686;2022-12-18T15:25:00;17.75;;;13.15;;
56511;SDS011;42408;53.238;5.686;2022-12-18T15:27:34;20.98;;;13.48;;
56511;SDS011;42408;53.238;5.686;2022-12-18T15:32:35;13.55;;;10.02;;
56511;SDS011;42408;53.238;5.686;2022-12-18T15:35:23;18.27;;;14.40;;
56511;SDS011;42408;53.238;5.686;2022-12-18T15:37:52;13.88;;;9.60;;
56511;SDS011;42408;53.238;5.686;2022-12-18T15:40:19;15.40;;;10.25;;
56511;SDS011;42408;53.238;5.686;2022-12-18T15:42:46;9.13;;;6.93;;
56511;SDS011;42408;53.238;5.686;2022-12-18T15:45:32;11.35;;;8.73;;
56511;SDS011;42408;53.238;5.686;2022-12-18T15:47:57;15.03;;;9.83;;
56511;SDS011;42408;53.238;5.686;2022-12-18T15:50:24;13.03;;;10.07;;
56511;SDS011;42408;53.238;5.686;2022-12-18T15:52:50;11.90;;;6.97;;
56511;SDS011;42408;53.238;5.686;2022-12-18T15:55:22;11.98;;;7.45;;
56511;SDS011;42408;53.238;5.686;2022-12-18T15:58:08;11.32;;;7.22;;
56511;SDS011;42408;53.238;5.686;2022-12-18T16:00:35;14.05;;;10.10;;
56511;SDS011;42408;53.238;5.686;2022-12-18T16:03:04;13.70;;;8.70;;
56511;SDS011;42408;53.238;5.686;2022-12-18T16:05:30;14.02;;;10.00;;
56511;SDS011;42408;53.238;5.686;2022-12-18T16:07:56;11.98;;;8.52;;
56511;SDS011;42408;53.238;5.686;2022-12-18T16:10:23;16.33;;;11.75;;
56511;SDS011;42408;53.238;5.686;2022-12-18T16:12:50;40.42;;;30.17;;
56511;SDS011;42408;53.238;5.686;2022-12-18T16:15:16;18.67;;;15.07;;
56511;SDS011;42408;53.238;5.686;2022-12-18T16:17:45;11.07;;;8.27;;
56511;SDS011;42408;53.238;5.686;2022-12-18T16:20:12;16.55;;;12.82;;
56511;SDS011;42408;53.238;5.686;2022-12-18T16:22:43;17.58;;;12.90;;
56511;SDS011;42408;53.238;5.686;2022-12-18T16:25:16;12.07;;;8.20;;
56511;SDS011;42408;53.238;5.686;2022-12-18T16:27:42;12.20;;;8.55;;
56511;SDS011;42408;53.238;5.686;2022-12-18T16:30:11;11.20;;;8.83;;
56511;SDS011;42408;53.238;5.686;2022-12-18T16:32:38;11.55;;;7.82;;
56511;SDS011;42408;53.238;5.686;2022-12-18T16:35:04;15.30;;;11.63;;
56511;SDS011;42408;53.238;5.686;2022-12-18T16:37:30;10.40;;;7.35;;
56511;SDS011;42408;53.238;5.686;2022-12-18T16:39:55;14.73;;;10.33;;
56511;SDS011;42408;53.238;5.686;2022-12-18T16:42:21;12.33;;;8.77;;
56511;SDS011;42408;53.238;5.686;2022-12-18T16:44:47;11.73;;;9.00;;
56511;SDS011;42408;53.238;5.686;2022-12-18T16:47:14;17.63;;;11.65;;
56511;SDS011;42408;53.238;5.686;2022-12-18T16:49:41;14.98;;;11.73;;
56511;SDS011;42408;53.238;5.686;2022-12-18T16:52:09;11.38;;;7.75;;
56511;SDS011;42408;53.238;5.686;2022-12-18T16:54:35;11.67;;;8.77;;
56511;SDS011;42408;53.238;5.686;2022-12-18T16:57:01;12.67;;;8.37;;
56511;SDS011;42408;53.238;5.686;2022-12-18T16:59:29;10.90;;;7.07;;
56511;SDS011;42408;53.238;5.686;2022-12-18T17:01:55;12.67;;;8.63;;
56511;SDS011;42408;53.238;5.686;2022-12-18T17:04:21;11.90;;;7.55;;
56511;SDS011;42408;53.238;5.686;2022-12-18T17:06:47;13.27;;;9.20;;
56511;SDS011;42408;53.238;5.686;2022-12-18T17:09:18;12.07;;;8.40;;
56511;SDS011;42408;53.238;5.686;2022-12-18T17:11:53;11.60;;;8.00;;
56511;SDS011;42408;53.238;5.686;2022-12-18T17:14:20;10.40;;;8.03;;
56511;SDS011;42408;53.238;5.686;2022-12-18T17:16:48;12.38;;;7.72;;
56511;SDS011;42408;53.238;5.686;2022-12-18T17:19:14;11.80;;;7.70;;
56511;SDS011;42408;53.238;5.686;2022-12-18T17:21:41;10.50;;;7.05;;